createdAt,value
2022-09-15T00:08:13.077Z,7.40
2022-09-15T00:19:12.960Z,8.10
2022-09-15T00:30:12.828Z,6.00
2022-09-15T00:41:12.695Z,3.80
2022-09-15T00:52:12.575Z,2.80
2022-09-15T01:03:12.453Z,2.50
2022-09-15T01:14:12.331Z,3.30
2022-09-15T01:25:12.228Z,2.70
2022-09-15T01:36:12.090Z,2.40
2022-09-15T01:47:11.966Z,1.70
2022-09-15T01:58:11.847Z,3.50
2022-09-15T02:09:11.726Z,1.80
2022-09-15T02:20:11.614Z,2.40
2022-09-15T02:31:11.609Z,2.10
2022-09-15T02:42:11.358Z,2.40
2022-09-15T02:53:11.239Z,1.80
2022-09-15T03:04:11.118Z,3.00
2022-09-15T03:15:10.998Z,2.70
2022-09-15T03:26:10.888Z,3.10
2022-09-15T03:37:10.761Z,3.10
2022-09-15T03:48:10.640Z,5.30
2022-09-15T03:59:10.510Z,4.80
2022-09-15T04:10:10.388Z,7.50
2022-09-15T04:21:10.271Z,2.90
2022-09-15T04:32:10.177Z,4.30
2022-09-15T04:43:10.033Z,6.90
2022-09-15T04:54:09.982Z,4.70
2022-09-15T05:05:09.830Z,2.60
2022-09-15T05:16:09.733Z,5.30
2022-09-15T05:27:09.532Z,6.10
2022-09-15T05:38:09.421Z,4.90
2022-09-15T05:49:09.382Z,5.10
2022-09-15T06:00:09.163Z,8.10
2022-09-15T06:11:09.044Z,11.50
2022-09-15T06:22:08.924Z,17.00
2022-09-15T06:33:08.811Z,20.10
2022-09-15T06:44:08.684Z,14.40
2022-09-15T06:55:08.551Z,22.10
2022-09-15T07:06:08.428Z,8.50
2022-09-15T07:17:08.319Z,13.30
2022-09-15T07:28:08.203Z,13.20
2022-09-15T07:39:08.066Z,4.30
2022-09-15T07:50:07.927Z,4.40
2022-09-15T08:01:08.271Z,7.50
2022-09-15T08:12:07.697Z,8.10
2022-09-15T08:23:07.674Z,7.50
2022-09-15T08:34:07.451Z,11.70
2022-09-15T08:45:07.316Z,9.70
2022-09-15T08:56:09.993Z,11.30
2022-09-15T09:07:07.072Z,12.40
2022-09-15T09:18:06.967Z,9.80
2022-09-15T09:29:06.871Z,5.80
2022-09-15T09:40:06.838Z,10.30
2022-09-15T09:51:06.673Z,7.50
2022-09-15T10:02:06.455Z,5.90
2022-09-15T10:13:41.425Z,6.40
2022-09-15T10:24:45.076Z,4.00
2022-09-15T10:35:44.971Z,2.90
2022-09-15T10:46:44.828Z,3.30
2022-09-15T10:57:44.699Z,2.20
2022-09-15T11:08:44.619Z,3.20
2022-09-15T11:19:44.444Z,11.50
2022-09-15T11:30:47.660Z,5.00
2022-09-15T11:41:44.208Z,3.80
2022-09-15T11:52:44.071Z,2.40
2022-09-15T12:03:44.047Z,10.90
2022-09-15T12:14:43.827Z,4.20
2022-09-15T12:25:43.701Z,4.40
2022-09-15T12:36:43.606Z,6.40
2022-09-15T12:47:43.476Z,7.90
2022-09-15T12:58:43.334Z,8.30
2022-09-15T13:09:43.215Z,6.50
2022-09-15T13:20:43.096Z,5.90
2022-09-15T13:31:42.972Z,4.80
2022-09-15T13:42:42.856Z,7.90
2022-09-15T13:53:43.019Z,4.00
2022-09-15T14:04:42.603Z,4.80
2022-09-15T14:15:42.503Z,4.80
2022-09-15T14:26:42.356Z,5.00
2022-09-15T14:37:42.234Z,3.70
2022-09-15T14:48:42.117Z,3.70
2022-09-15T14:59:42.006Z,2.80
2022-09-15T15:10:41.897Z,4.00
2022-09-15T15:21:41.737Z,4.80
2022-09-15T15:32:41.620Z,3.60
2022-09-15T15:43:41.502Z,2.60
2022-09-15T15:54:41.362Z,3.00
2022-09-15T16:05:41.242Z,4.40
2022-09-15T16:16:41.215Z,6.90
2022-09-15T16:27:41.017Z,7.40
2022-09-15T16:38:40.889Z,2.90
2022-09-15T16:49:40.896Z,3.30
2022-09-15T17:00:40.645Z,3.30
2022-09-15T17:11:40.506Z,4.40
2022-09-15T17:22:40.397Z,2.80
2022-09-15T17:33:40.252Z,3.70
2022-09-15T17:44:40.146Z,9.60
2022-09-15T17:55:40.006Z,3.90
2022-09-15T18:06:44.734Z,13.60
2022-09-15T18:17:39.763Z,6.00
2022-09-15T18:28:39.643Z,3.30
2022-09-15T18:39:39.528Z,3.30
2022-09-15T18:50:39.410Z,4.00
2022-09-15T19:01:39.350Z,3.20
2022-09-15T19:12:39.163Z,3.90
2022-09-15T19:23:39.034Z,3.50
2022-09-15T19:34:38.916Z,3.80
2022-09-15T19:45:38.824Z,6.10
2022-09-15T19:56:38.671Z,8.90
2022-09-15T20:07:38.547Z,5.40
2022-09-15T20:18:38.431Z,5.20
2022-09-15T20:29:38.309Z,3.90
2022-09-15T20:40:38.182Z,3.70
2022-09-15T20:51:38.082Z,3.70
